Time;durP1;ratioP1;P1;durP2;ratioP2;P2;SDS_P1;SDS_P2;PMS_P1;PMS_P2;Temp;Humidity;BMP_temperature;BMP_pressure;BME280_temperature;BME280_humidity;BME280_pressure;Samples;Min_cycle;Max_cycle;Signal;HPM_P1;HPM_P2
2022/12/31 00:00:07;;;;;;;2.30;2.10;;;;;;;16.69;65.70;100207.38;5092651;28;20148;-71
2022/12/31 00:02:34;;;;;;;2.65;2.03;;;;;;;16.68;65.90;100211.09;5093596;28;20455;-70
2022/12/31 00:05:01;;;;;;;2.40;1.73;;;;;;;16.69;65.75;100207.38;5093056;28;20040;-69
2022/12/31 00:07:27;;;;;;;2.10;1.80;;;;;;;16.67;65.73;100199.41;5093586;28;20067;-70
2022/12/31 00:09:54;;;;;;;4.60;2.00;;;;;;;16.69;65.82;100210.09;5093745;28;20394;-70
2022/12/31 00:12:20;;;;;;;2.88;1.80;;;;;;;16.71;65.81;100199.94;5093389;28;20138;-69
2022/12/31 00:14:47;;;;;;;4.70;2.08;;;;;;;16.72;65.90;100201.63;5093411;28;20035;-69
2022/12/31 00:17:13;;;;;;;2.80;2.00;;;;;;;16.72;66.15;100209.78;5093445;28;20051;-70
2022/12/31 00:19:42;;;;;;;3.33;1.98;;;;;;;16.72;66.07;100209.78;5093657;28;20127;-69
2022/12/31 00:22:09;;;;;;;3.42;1.70;;;;;;;16.72;65.69;100199.78;5093217;28;20482;-69
2022/12/31 00:24:35;;;;;;;2.13;1.55;;;;;;;16.72;66.29;100202.47;5093315;28;20036;-70
2022/12/31 00:27:02;;;;;;;2.92;1.80;;;;;;;16.72;65.89;100197.06;5100149;28;20051;-68
2022/12/31 00:29:28;;;;;;;6.20;1.85;;;;;;;16.73;65.94;100197.91;5094570;28;20109;-69
2022/12/31 00:31:55;;;;;;;2.58;1.50;;;;;;;16.72;66.30;100199.78;5093381;28;20121;-69
2022/12/31 00:34:22;;;;;;;1.88;1.30;;;;;;;16.73;66.12;100198.75;5093187;28;20580;-69
2022/12/31 00:36:48;;;;;;;2.25;1.60;;;;;;;16.74;66.30;100200.47;5093896;28;20040;-69
2022/12/31 00:39:15;;;;;;;2.78;1.65;;;;;;;16.75;66.54;100207.56;5093243;28;20040;-69
2022/12/31 00:41:42;;;;;;;2.50;1.80;;;;;;;16.75;66.24;100202.16;5093006;28;20494;-68
2022/12/31 00:44:13;;;;;;;1.60;1.50;;;;;;;16.75;66.21;100204.00;5093182;28;20044;-70
2022/12/31 00:46:41;;;;;;;2.90;1.70;;;;;;;16.77;66.43;100191.16;5092656;28;20438;-69
2022/12/31 00:49:08;;;;;;;3.60;1.80;;;;;;;16.77;66.61;100194.69;5092992;28;20059;-70
2022/12/31 00:51:34;;;;;;;2.72;1.73;;;;;;;16.78;66.29;100188.25;5092772;28;20050;-68
2022/12/31 00:54:01;;;;;;;2.47;1.90;;;;;;;16.79;66.49;100184.53;5096025;28;20135;-69
2022/12/31 00:56:29;;;;;;;2.38;2.03;;;;;;;16.80;66.72;100188.09;5092745;28;20123;-69
2022/12/31 00:58:57;;;;;;;3.45;2.42;;;;;;;16.82;66.55;100181.50;5091817;28;20040;-69
2022/12/31 01:01:32;;;;;;;2.53;1.90;;;;;;;16.83;66.76;100185.06;5092714;28;20498;-70
2022/12/31 01:04:03;;;;;;;3.75;2.22;;;;;;;16.85;66.52;100185.75;5092942;28;20486;-68
2022/12/31 01:06:31;;;;;;;2.20;2.00;;;;;;;16.87;66.56;100196.44;5073157;28;20044;-68
2022/12/31 01:08:57;;;;;;;3.35;2.10;;;;;;;16.85;66.78;100196.59;5073082;28;20036;-68
2022/12/31 01:11:28;;;;;;;2.75;1.80;;;;;;;16.86;66.67;100194.72;5090379;28;20043;-69
2022/12/31 01:14:03;;;;;;;2.05;1.73;;;;;;;16.85;66.86;100199.31;5092589;28;20468;-69
2022/12/31 01:16:33;;;;;;;3.88;1.50;;;;;;;16.85;66.59;100169.47;5093925;28;20486;-69
2022/12/31 01:19:04;;;;;;;1.38;0.90;;;;;;;16.84;66.83;100170.47;5096421;28;20119;-69
2022/12/31 01:21:31;;;;;;;1.58;1.00;;;;;;;16.83;66.48;100185.06;5096651;28;20119;-68
2022/12/31 01:23:58;;;;;;;1.05;0.77;;;;;;;16.82;66.61;100202.34;5096038;28;20040;-68
2022/12/31 01:26:29;;;;;;;3.17;0.88;;;;;;;16.83;66.90;100185.06;5096942;28;20136;-69
2022/12/31 01:28:56;;;;;;;1.13;0.70;;;;;;;16.84;66.79;100175.91;5096499;28;20044;-70
2022/12/31 01:31:23;;;;;;;6.00;0.70;;;;;;;16.85;66.54;100164.03;5096410;28;20119;-68
2022/12/31 01:33:51;;;;;;;1.80;0.60;;;;;;;16.84;66.59;100162.34;5096114;28;20039;-68
2022/12/31 01:36:22;;;;;;;1.60;0.40;;;;;;;16.84;66.37;100165.91;5095887;27;20143;-69
2022/12/31 01:38:53;;;;;;;0.93;0.50;;;;;;;16.84;66.50;100170.47;5096483;28;20083;-69
2022/12/31 01:41:30;;;;;;;1.25;0.60;;;;;;;16.83;66.81;100179.63;5096039;28;20032;-69
2022/12/31 01:44:11;;;;;;;0.65;0.50;;;;;;;16.84;66.03;100184.91;5096167;28;20032;-69
2022/12/31 01:46:39;;;;;;;0.68;0.40;;;;;;;16.82;66.61;100192.34;5096771;28;20047;-69
2022/12/31 01:49:24;;;;;;;1.75;0.40;;;;;;;16.80;66.36;100194.38;5095948;28;20555;-69
2022/12/31 01:52:14;;;;;;;1.20;0.75;;;;;;;16.81;66.81;100196.06;5096307;28;20497;-69
2022/12/31 01:54:49;;;;;;;1.23;0.50;;;;;;;16.81;66.37;100195.22;5096284;28;20513;-70
2022/12/31 01:57:16;;;;;;;0.60;0.50;;;;;;;16.79;66.57;100198.09;5095874;28;20514;-69
2022/12/31 01:59:44;;;;;;;0.52;0.47;;;;;;;16.78;66.69;100193.69;5095928;28;20040;-69
2022/12/31 02:02:13;;;;;;;0.60;0.50;;;;;;;16.78;66.70;100192.84;5095802;28;20056;-69
2022/12/31 02:04:40;;;;;;;0.70;0.40;;;;;;;16.76;66.63;100212.00;5095913;28;20040;-68
2022/12/31 02:07:08;;;;;;;0.73;0.30;;;;;;;16.73;66.37;100222.31;5095929;28;20032;-69
2022/12/31 02:09:37;;;;;;;1.00;0.40;;;;;;;16.72;66.62;100240.44;5095736;28;20051;-68
2022/12/31 02:12:05;;;;;;;1.63;0.47;;;;;;;16.71;66.51;100270.44;5095406;28;20543;-69
2022/12/31 02:14:36;;;;;;;1.27;0.50;;;;;;;16.69;66.68;100273.31;5095704;28;20059;-69
2022/12/31 02:17:27;;;;;;;0.70;0.50;;;;;;;16.68;66.79;100273.47;5095508;28;20043;-69
2022/12/31 02:19:53;;;;;;;1.15;0.50;;;;;;;16.67;66.68;100217.53;5095607;28;20044;-69
2022/12/31 02:22:36;;;;;;;0.90;0.60;;;;;;;16.64;66.88;100205.13;5095264;28;20482;-70
2022/12/31 02:25:30;;;;;;;2.45;0.52;;;;;;;16.63;67.12;100214.28;5095498;28;20048;-69
2022/12/31 02:28:09;;;;;;;1.10;0.50;;;;;;;16.63;66.79;100218.84;5095242;28;20047;-69
2022/12/31 02:30:37;;;;;;;0.50;0.45;;;;;;;16.62;66.99;100218.00;5095293;28;20115;-68
2022/12/31 02:33:12;;;;;;;1.13;0.60;;;;;;;16.60;66.82;100221.88;5095015;28;20047;-69
2022/12/31 02:35:50;;;;;;;1.88;0.80;;;;;;;16.61;67.04;100232.56;5095335;28;20051;-68
2022/12/31 02:38:25;;;;;;;0.85;0.65;;;;;;;16.62;66.94;100242.41;5095054;28;20044;-68
2022/12/31 02:40:55;;;;;;;2.58;1.00;;;;;;;16.64;66.86;100242.25;5094933;27;20052;-69
2022/12/31 02:43:23;;;;;;;1.00;0.75;;;;;;;16.64;67.05;100253.09;5094842;28;20040;-68
2022/12/31 02:46:03;;;;;;;1.13;0.60;;;;;;;16.63;67.07;100251.38;5094938;28;20513;-68
2022/12/31 02:48:39;;;;;;;1.10;0.80;;;;;;;16.64;67.06;100255.78;5095477;28;20044;-68
2022/12/31 02:51:24;;;;;;;1.83;0.90;;;;;;;16.63;67.12;100241.38;5094798;28;20139;-69
2022/12/31 02:54:27;;;;;;;0.85;0.85;;;;;;;16.66;66.83;100245.66;5094615;28;20541;-68
2022/12/31 02:57:21;;;;;;;3.53;1.10;;;;;;;16.65;66.75;100249.38;5094834;28;20059;-68
2022/12/31 03:02:47;;;;;;;2.25;1.10;;;;;;;16.69;67.15;100261.63;5094387;28;20048;-68
2022/12/31 03:05:17;;;;;;;1.38;1.17;;;;;;;16.67;66.70;100256.34;5094494;28;20489;-69
2022/12/31 03:07:44;;;;;;;1.33;1.20;;;;;;;16.67;66.90;100241.94;5094839;28;20162;-68
2022/12/31 03:10:11;;;;;;;1.85;1.20;;;;;;;16.68;67.11;100249.06;5094384;28;20048;-69
2022/12/31 03:12:46;;;;;;;1.67;1.30;;;;;;;16.69;67.15;100239.91;5094262;28;20452;-70
2022/12/31 03:15:19;;;;;;;1.60;1.50;;;;;;;16.71;66.98;100221.63;5093050;28;20071;-69
2022/12/31 03:17:51;;;;;;;1.80;1.17;;;;;;;16.71;67.10;100241.47;5094559;28;20070;-70
2022/12/31 03:23:06;;;;;;;0.90;0.90;;;;;;;16.72;66.72;100228.75;5094175;28;20097;-69
2022/12/31 03:25:33;;;;;;;1.48;1.10;;;;;;;16.74;66.89;100222.16;5094278;28;20051;-70
2022/12/31 03:28:03;;;;;;;1.10;0.90;;;;;;;16.73;66.93;100225.03;5094283;28;20036;-70
2022/12/31 03:30:31;;;;;;;1.30;1.20;;;;;;;16.73;66.98;100214.19;5094261;28;20135;-68
2022/12/31 03:32:58;;;;;;;1.75;1.38;;;;;;;16.73;66.74;100220.44;5093860;28;20438;-69
2022/12/31 03:35:27;;;;;;;1.92;1.48;;;;;;;16.71;66.77;100222.47;5094052;28;20039;-69
2022/12/31 03:37:55;;;;;;;1.48;1.30;;;;;;;16.71;66.55;100213.50;5093875;28;20448;-69
2022/12/31 03:40:24;;;;;;;1.33;1.23;;;;;;;16.69;66.75;100213.66;5093351;28;20082;-68
2022/12/31 03:42:51;;;;;;;1.52;1.40;;;;;;;16.68;66.97;100214.66;5093787;28;20131;-68
2022/12/31 03:45:18;;;;;;;3.08;1.50;;;;;;;16.66;66.87;100203.13;5093920;28;20050;-68
2022/12/31 03:47:46;;;;;;;1.70;1.60;;;;;;;16.65;66.77;100201.44;5093809;28;20054;-69
2022/12/31 03:50:15;;;;;;;2.67;1.67;;;;;;;16.63;66.74;100195.31;5094400;28;20140;-68
2022/12/31 03:52:41;;;;;;;2.67;1.50;;;;;;;16.64;66.90;100196.16;5093801;28;20043;-68
2022/12/31 03:55:09;;;;;;;2.20;1.60;;;;;;;16.64;66.98;100193.44;5093673;28;20036;-67
2022/12/31 03:57:36;;;;;;;1.45;1.30;;;;;;;16.62;66.93;100193.59;5093724;28;20050;-67
2022/12/31 04:00:06;;;;;;;1.20;1.10;;;;;;;16.61;66.94;100199.19;5093725;28;20050;-67
2022/12/31 04:02:33;;;;;;;1.35;1.10;;;;;;;16.61;67.08;100199.19;5093406;28;20115;-69
2022/12/31 04:05:00;;;;;;;1.20;1.10;;;;;;;16.58;67.15;100192.22;5093710;28;20040;-68
2022/12/31 04:07:26;;;;;;;0.85;0.80;;;;;;;16.57;66.78;100190.53;5093708;28;20135;-69
2022/12/31 04:09:53;;;;;;;1.00;0.80;;;;;;;16.58;66.97;100183.25;5093515;28;20048;-68
2022/12/31 04:12:19;;;;;;;2.25;0.90;;;;;;;16.56;67.27;100185.28;5093351;28;20051;-68
2022/12/31 04:14:46;;;;;;;1.10;1.00;;;;;;;16.57;67.05;100186.97;5093391;28;20044;-68
2022/12/31 04:17:12;;;;;;;0.93;0.93;;;;;;;16.59;66.84;100185.78;5093118;27;20059;-69
2022/12/31 04:19:40;;;;;;;1.20;0.90;;;;;;;16.59;67.15;100184.94;5093290;28;20047;-69
2022/12/31 04:22:06;;;;;;;0.80;0.80;;;;;;;16.61;66.83;100182.91;5093017;28;20042;-68
2022/12/31 04:24:33;;;;;;;1.77;1.00;;;;;;;16.61;66.88;100172.94;5091919;28;20040;-68
2022/12/31 04:27:00;;;;;;;1.00;0.88;;;;;;;16.62;67.14;100184.63;5093455;28;20502;-68
2022/12/31 04:29:33;;;;;;;0.88;0.88;;;;;;;16.64;66.99;100185.31;5091966;28;20074;-69
2022/12/31 04:31:59;;;;;;;1.10;0.98;;;;;;;16.65;66.92;100184.28;5092138;28;20036;-69
2022/12/31 04:34:26;;;;;;;1.90;0.90;;;;;;;16.65;67.11;100195.13;5091965;28;20101;-68
2022/12/31 04:36:53;;;;;;;1.70;1.10;;;;;;;16.65;66.93;100205.97;5092887;27;20044;-68
2022/12/31 04:39:20;;;;;;;1.42;1.20;;;;;;;16.64;66.76;100207.00;5093759;28;20364;-67
2022/12/31 04:41:48;;;;;;;1.30;1.00;;;;;;;16.62;66.94;100209.88;5092729;28;20052;-68
2022/12/31 04:44:15;;;;;;;1.33;1.17;;;;;;;16.60;67.35;100205.63;5093367;28;20050;-68
2022/12/31 04:46:41;;;;;;;1.73;1.40;;;;;;;16.57;67.17;100197.81;5091747;28;20048;-68
2022/12/31 04:49:09;;;;;;;1.73;1.63;;;;;;;16.55;67.35;100195.28;5093216;28;20040;-68
2022/12/31 04:51:35;;;;;;;3.13;2.25;;;;;;;16.52;67.58;100188.31;5095008;28;20135;-69
2022/12/31 04:54:02;;;;;;;2.30;2.03;;;;;;;16.50;67.18;100179.50;5096927;28;20040;-67
2022/12/31 04:56:30;;;;;;;2.40;2.13;;;;;;;16.49;67.45;100168.81;5096863;28;20052;-67
2022/12/31 04:58:57;;;;;;;2.90;2.40;;;;;;;16.49;67.43;100206.75;5096853;28;20050;-67
2022/12/31 05:01:24;;;;;;;2.22;2.03;;;;;;;16.47;67.68;100215.06;5096674;28;20044;-68
2022/12/31 05:03:51;;;;;;;1.90;1.70;;;;;;;16.44;67.56;100215.38;5096493;28;20090;-67
2022/12/31 05:06:21;;;;;;;2.90;2.05;;;;;;;16.45;67.65;100205.38;5096787;28;20486;-68
2022/12/31 05:08:48;;;;;;;2.15;1.80;;;;;;;16.42;67.38;100201.16;5096868;28;20050;-69
2022/12/31 05:11:15;;;;;;;2.13;1.80;;;;;;;16.40;67.40;100197.75;5096791;28;20036;-69
2022/12/31 05:13:42;;;;;;;4.22;2.20;;;;;;;16.42;67.66;100220.13;5096503;28;20040;-68
2022/12/31 05:16:09;;;;;;;3.70;2.25;;;;;;;16.46;67.94;100209.81;5096654;28;20495;-68
2022/12/31 05:18:36;;;;;;;6.03;2.00;;;;;;;16.48;68.00;100208.63;5096685;28;20074;-68
2022/12/31 05:21:03;;;;;;;4.03;1.98;;;;;;;16.53;68.18;100209.00;5095333;28;20139;-68
2022/12/31 05:23:29;;;;;;;4.88;1.85;;;;;;;16.59;67.92;100223.75;5096350;28;20371;-68
2022/12/31 05:25:58;;;;;;;2.38;1.38;;;;;;;16.64;67.97;100226.81;5095200;28;20048;-68
2022/12/31 05:28:25;;;;;;;2.67;1.50;;;;;;;16.69;68.32;100215.53;5096765;28;20119;-69
2022/12/31 05:30:52;;;;;;;6.18;1.50;;;;;;;16.74;68.46;100224.00;5096564;28;20044;-68
2022/12/31 05:33:19;;;;;;;4.30;1.13;;;;;;;16.79;68.45;100208.09;5096187;28;20067;-67
2022/12/31 05:35:46;;;;;;;4.07;1.17;;;;;;;16.84;68.44;100213.88;5096407;28;20070;-67
2022/12/31 05:38:12;;;;;;;4.90;1.00;;;;;;;16.89;68.41;100225.09;5096184;28;20048;-67
2022/12/31 05:40:39;;;;;;;2.85;0.98;;;;;;;16.96;68.49;100230.69;5096673;28;20482;-68
2022/12/31 05:43:06;;;;;;;3.95;1.15;;;;;;;17.02;68.37;100232.75;5095900;28;20032;-68
2022/12/31 05:45:32;;;;;;;3.67;1.30;;;;;;;17.08;68.80;100226.66;5096052;28;20044;-68
2022/12/31 05:48:00;;;;;;;3.78;1.00;;;;;;;17.11;68.90;100240.78;5096045;28;20410;-69
2022/12/31 05:50:27;;;;;;;1.65;0.80;;;;;;;17.14;68.80;100240.44;5096175;28;20570;-68
2022/12/31 05:52:54;;;;;;;3.38;1.00;;;;;;;17.17;68.72;100255.53;5094512;28;20044;-68
2022/12/31 05:55:21;;;;;;;3.10;1.00;;;;;;;17.22;68.59;100247.75;5096349;28;20032;-68
2022/12/31 05:57:48;;;;;;;4.28;0.85;;;;;;;17.25;68.72;100252.84;5095762;28;20075;-68
2022/12/31 06:00:15;;;;;;;1.85;0.70;;;;;;;17.28;68.85;100251.66;5095777;28;20051;-69
2022/12/31 06:02:41;;;;;;;2.78;0.75;;;;;;;17.31;68.84;100254.88;5094598;28;20071;-67
2022/12/31 06:05:09;;;;;;;4.72;0.70;;;;;;;17.36;68.64;100262.53;5095689;28;20157;-68
2022/12/31 06:07:35;;;;;;;2.80;0.95;;;;;;;17.39;68.69;100252.19;5095630;28;20048;-68
2022/12/31 06:10:03;;;;;;;3.97;1.00;;;;;;;17.43;68.60;100250.00;5095649;28;20511;-68
2022/12/31 06:12:30;;;;;;;3.28;0.90;;;;;;;17.46;68.54;100250.50;5095425;28;20040;-68
2022/12/31 06:14:56;;;;;;;6.30;0.98;;;;;;;17.49;68.73;100241.16;5095487;28;20044;-68
2022/12/31 06:17:23;;;;;;;2.42;0.77;;;;;;;17.50;68.74;100232.00;5095493;28;20093;-68
2022/12/31 06:19:49;;;;;;;2.75;0.82;;;;;;;17.52;68.67;100246.25;5095494;28;20040;-68
2022/12/31 06:22:16;;;;;;;2.55;0.70;;;;;;;17.54;68.73;100227.94;5095243;28;20394;-69
2022/12/31 06:24:43;;;;;;;1.85;0.70;;;;;;;17.57;68.54;100241.19;5095623;28;20047;-68
2022/12/31 06:27:09;;;;;;;1.25;0.70;;;;;;;17.59;68.71;100270.88;5095522;28;20032;-69
2022/12/31 06:29:36;;;;;;;2.30;0.70;;;;;;;17.61;68.50;100247.97;5094205;28;20044;-68
2022/12/31 06:32:03;;;;;;;1.92;0.63;;;;;;;17.63;68.35;100245.94;5095281;28;20090;-68
2022/12/31 06:34:30;;;;;;;2.80;0.80;;;;;;;17.67;68.61;100287.22;5095157;28;20036;-70
2022/12/31 06:36:57;;;;;;;3.80;0.82;;;;;;;17.68;68.46;100287.03;5095000;27;20040;-70
2022/12/31 06:39:24;;;;;;;3.60;1.67;;;;;;;17.70;68.44;100282.28;5095045;28;20096;-69
2022/12/31 06:41:51;;;;;;;1.70;1.20;;;;;;;17.71;68.26;100261.41;5094364;28;20556;-70
2022/12/31 06:44:18;;;;;;;3.15;1.15;;;;;;;17.71;68.48;100261.41;5095260;28;20073;-70
2022/12/31 06:46:44;;;;;;;1.92;0.90;;;;;;;17.70;67.91;100252.41;5095017;28;20044;-68
2022/12/31 06:49:11;;;;;;;2.85;1.02;;;;;;;17.69;68.29;100260.72;5095080;28;20577;-69
2022/12/31 06:51:37;;;;;;;2.50;0.60;;;;;;;17.71;68.06;100259.53;5095084;28;20047;-69
2022/12/31 06:54:04;;;;;;;4.05;0.80;;;;;;;17.74;68.07;100259.19;5094666;28;20040;-69
2022/12/31 06:56:31;;;;;;;0.88;0.40;;;;;;;17.79;68.10;100266.84;5094360;28;20055;-68
2022/12/31 06:59:01;;;;;;;2.83;0.60;;;;;;;17.85;68.23;100257.19;5094287;28;20041;-68
2022/12/31 07:01:49;;;;;;;3.53;0.70;;;;;;;17.90;68.06;100258.38;5094249;28;20036;-69
2022/12/31 07:04:41;;;;;;;1.58;0.60;;;;;;;17.94;67.85;100258.91;5092112;28;20044;-68
2022/12/31 07:07:43;;;;;;;1.67;0.60;;;;;;;17.98;67.58;100250.22;5093661;28;20039;-69
2022/12/31 07:10:26;;;;;;;1.50;0.57;;;;;;;18.04;67.46;100251.41;5080807;28;20062;-68
2022/12/31 07:13:01;;;;;;;1.63;0.50;;;;;;;18.07;67.08;100251.91;5091654;28;20044;-69
2022/12/31 07:15:46;;;;;;;3.03;0.70;;;;;;;18.12;67.09;100245.97;5093627;28;20095;-68
2022/12/31 07:18:18;;;;;;;5.28;1.42;;;;;;;18.16;66.96;100247.31;5091252;28;20074;-68
2022/12/31 07:20:45;;;;;;;2.22;0.60;;;;;;;18.18;66.85;100266.16;5093783;28;20101;-69
2022/12/31 07:23:12;;;;;;;2.90;0.60;;;;;;;18.18;66.75;100250.72;5094048;28;20417;-68
2022/12/31 07:25:48;;;;;;;1.42;0.70;;;;;;;18.21;66.70;100246.78;5093999;27;20467;-69
2022/12/31 07:28:44;;;;;;;3.53;0.80;;;;;;;18.23;66.47;100269.22;5093173;28;20040;-68
2022/12/31 07:31:29;;;;;;;2.33;0.80;;;;;;;18.26;66.32;100252.56;5093835;28;20520;-69
2022/12/31 07:34:17;;;;;;;3.70;0.70;;;;;;;18.27;66.35;100263.25;5093070;28;20441;-69
2022/12/31 07:37:02;;;;;;;2.83;1.05;;;;;;;18.27;66.12;100248.81;5092238;28;20519;-70
2022/12/31 07:39:45;;;;;;;3.22;0.90;;;;;;;18.30;65.89;100262.91;5085482;28;20036;-70
2022/12/31 07:42:41;;;;;;;1.80;0.75;;;;;;;18.31;65.99;100278.19;5092471;28;20563;-69
2022/12/31 07:45:23;;;;;;;2.95;0.95;;;;;;;18.34;65.99;100253.41;5088099;28;20059;-71
2022/12/31 07:47:50;;;;;;;5.05;1.10;;;;;;;18.36;65.52;100267.66;5101188;28;20043;-70
2022/12/31 07:50:17;;;;;;;5.97;0.80;;;;;;;18.39;65.97;100267.31;5096053;28;20152;-70
2022/12/31 07:52:45;;;;;;;2.90;0.95;;;;;;;18.42;65.61;100275.13;5093389;28;20371;-71
2022/12/31 07:55:11;;;;;;;2.67;0.80;;;;;;;18.44;65.50;100264.06;5093858;28;20594;-71
2022/12/31 07:57:59;;;;;;;3.55;0.90;;;;;;;18.46;65.27;100261.19;5093874;28;20448;-70
2022/12/31 08:00:28;;;;;;;4.63;1.00;;;;;;;18.49;65.64;100278.00;5093954;28;20040;-70
2022/12/31 08:03:25;;;;;;;1.67;0.80;;;;;;;18.50;65.21;100274.25;5092627;28;20078;-70
2022/12/31 08:06:07;;;;;;;6.40;1.05;;;;;;;18.52;65.25;100280.38;5093468;28;20101;-71
2022/12/31 08:08:51;;;;;;;2.08;0.80;;;;;;;18.51;65.35;100275.94;5094042;28;20058;-71
2022/12/31 08:11:43;;;;;;;2.25;1.00;;;;;;;18.49;65.29;100267.13;5093625;28;20040;-71
2022/12/31 08:14:11;;;;;;;3.88;1.08;;;;;;;18.48;65.23;100256.41;5093700;28;20051;-71
2022/12/31 08:16:38;;;;;;;4.30;0.80;;;;;;;18.45;65.25;100268.50;5093236;28;20040;-71
2022/12/31 08:19:06;;;;;;;2.78;0.80;;;;;;;18.43;65.41;100275.97;5093562;28;20402;-70
2022/12/31 08:21:51;;;;;;;3.47;0.95;;;;;;;18.41;65.18;100278.00;5093108;28;20036;-70
2022/12/31 08:24:23;;;;;;;2.53;0.90;;;;;;;18.41;65.24;100299.75;5093795;28;20543;-71
2022/12/31 08:27:19;;;;;;;2.28;0.88;;;;;;;18.39;65.32;100302.66;5097843;28;20040;-71
2022/12/31 08:30:02;;;;;;;2.45;0.70;;;;;;;18.40;65.44;100323.38;5100141;28;20046;-73
2022/12/31 08:32:34;;;;;;;1.42;0.60;;;;;;;18.40;65.06;100320.66;5100040;28;20401;-73
2022/12/31 08:35:19;;;;;;;1.90;0.77;;;;;;;18.39;65.37;100340.72;5099816;27;20052;-73
2022/12/31 08:38:09;;;;;;;4.20;1.10;;;;;;;18.41;65.56;100354.16;5099121;28;20076;-73
2022/12/31 08:41:07;;;;;;;2.45;1.00;;;;;;;18.40;65.33;100356.00;5079581;28;20404;-72
2022/12/31 08:43:48;;;;;;;2.17;0.60;;;;;;;18.43;65.17;100360.25;5111672;28;20043;-71
2022/12/31 08:46:23;;;;;;;4.05;0.90;;;;;;;18.45;65.03;100368.25;5119883;27;20461;-72
2022/12/31 08:48:50;;;;;;;3.22;0.77;;;;;;;18.47;65.27;100377.94;5120689;27;20044;-71
2022/12/31 08:51:22;;;;;;;2.08;0.90;;;;;;;18.49;64.96;100392.19;5120162;27;20044;-71
2022/12/31 08:53:49;;;;;;;2.40;0.77;;;;;;;18.51;64.95;100402.91;5118143;27;20044;-72
2022/12/31 08:56:33;;;;;;;3.03;0.52;;;;;;;18.54;64.74;100397.13;5120086;28;20039;-71
2022/12/31 08:59:07;;;;;;;2.05;0.60;;;;;;;18.57;64.65;100429.41;5120142;27;20431;-71
2022/12/31 09:02:00;;;;;;;2.25;1.02;;;;;;;18.58;64.68;100418.41;5119847;27;20051;-71
2022/12/31 09:04:45;;;;;;;3.03;0.73;;;;;;;18.58;64.44;100432.00;5120379;27;20122;-71
2022/12/31 09:07:13;;;;;;;2.38;0.80;;;;;;;18.59;64.61;100441.00;5120259;27;20047;-72
2022/12/31 09:10:13;;;;;;;3.15;1.00;;;;;;;18.57;64.63;100441.16;5107730;27;20479;-73
2022/12/31 09:12:58;;;;;;;2.13;0.60;;;;;;;18.57;64.41;100448.47;5098739;28;20472;-73
2022/12/31 09:15:36;;;;;;;4.03;0.93;;;;;;;18.57;64.46;100467.50;5098225;28;20117;-73
2022/12/31 09:18:03;;;;;;;3.08;0.70;;;;;;;18.59;64.35;100471.78;5099427;28;20126;-73
2022/12/31 09:20:33;;;;;;;2.40;0.77;;;;;;;18.60;64.40;100469.91;5099426;28;20036;-73
2022/12/31 09:23:10;;;;;;;3.35;0.90;;;;;;;18.62;64.64;100471.47;5099050;28;20044;-73
2022/12/31 09:26:02;;;;;;;3.53;0.77;;;;;;;18.65;64.05;100481.16;5099344;28;20043;-73
2022/12/31 09:28:55;;;;;;;1.92;0.60;;;;;;;18.68;64.32;100488.97;5099400;28;20036;-73
2022/12/31 09:31:31;;;;;;;3.92;1.00;;;;;;;18.68;64.04;100489.81;5081203;28;20150;-73
2022/12/31 09:34:52;;;;;;;2.92;0.95;;;;;;;18.68;64.08;100486.25;5080788;28;20375;-73
2022/12/31 09:37:32;;;;;;;3.78;1.00;;;;;;;18.68;64.19;100522.47;4997481;28;20480;-73
2022/12/31 09:40:15;;;;;;;3.95;1.10;;;;;;;18.66;64.26;100519.06;5014219;28;20050;-73
2022/12/31 09:43:26;;;;;;;3.42;0.73;;;;;;;18.62;64.39;100514.13;5078868;28;20075;-74
2022/12/31 09:46:41;;;;;;;3.47;0.93;;;;;;;18.57;64.31;100522.75;5085916;28;20101;-74
2022/12/31 09:49:26;;;;;;;3.63;1.15;;;;;;;18.51;64.74;100517.13;5096156;28;20402;-73
2022/12/31 09:52:08;;;;;;;2.75;0.75;;;;;;;18.48;64.95;100518.31;5095452;28;20039;-72
2022/12/31 09:54:52;;;;;;;5.55;1.17;;;;;;;18.45;64.92;100528.66;5096155;28;20043;-72
2022/12/31 09:57:26;;;;;;;3.20;1.10;;;;;;;18.43;65.30;100521.53;5095786;28;20449;-72
2022/12/31 10:00:20;;;;;;;3.53;1.10;;;;;;;18.41;65.35;100529.00;5095820;28;20048;-72
2022/12/31 10:03:12;;;;;;;4.88;1.10;;;;;;;18.43;65.17;100529.69;5095066;28;20098;-73
2022/12/31 10:05:51;;;;;;;2.88;1.02;;;;;;;18.45;65.21;100528.66;5095734;28;20036;-73
2022/12/31 10:09:01;;;;;;;4.97;1.38;;;;;;;18.43;65.27;100535.13;5095803;28;20401;-73
2022/12/31 10:11:55;;;;;;;3.97;1.33;;;;;;;18.45;65.10;100523.22;5033070;28;20140;-72
2022/12/31 10:14:40;;;;;;;3.95;1.33;;;;;;;18.47;65.06;100529.34;5033285;28;20040;-73
2022/12/31 10:17:28;;;;;;;3.88;1.05;;;;;;;18.45;65.20;100526.81;5085338;28;20105;-72
2022/12/31 10:20:06;;;;;;;6.18;1.33;;;;;;;18.47;65.19;100526.63;5093834;28;20482;-72
2022/12/31 10:22:44;;;;;;;4.95;1.20;;;;;;;18.49;65.50;100530.03;5095128;28;20059;-72
2022/12/31 10:25:40;;;;;;;4.35;1.48;;;;;;;18.51;65.43;100519.84;5095016;28;20040;-72
2022/12/31 10:28:09;;;;;;;4.28;1.20;;;;;;;18.55;65.53;100522.06;5079540;28;20080;-73
2022/12/31 10:30:42;;;;;;;4.65;1.50;;;;;;;18.56;65.11;100521.03;5095023;28;20037;-73
2022/12/31 10:33:30;;;;;;;3.50;1.52;;;;;;;18.57;65.37;100517.28;5094983;28;20406;-73
2022/12/31 10:36:13;;;;;;;4.38;1.25;;;;;;;18.60;65.23;100511.56;5094563;28;20044;-72
2022/12/31 10:39:10;;;;;;;4.97;1.42;;;;;;;18.62;65.04;100516.84;5094667;28;20441;-75
2022/12/31 10:42:06;;;;;;;4.75;0.88;;;;;;;18.66;65.38;100510.91;5094149;27;20054;-72
2022/12/31 10:44:52;;;;;;;4.65;1.55;;;;;;;18.67;65.37;100496.28;5094856;28;20049;-72
2022/12/31 10:47:34;;;;;;;4.60;1.10;;;;;;;18.72;65.18;100493.91;5094511;28;20444;-72
2022/12/31 10:50:42;;;;;;;4.05;1.30;;;;;;;18.76;65.22;100490.84;5074559;28;20068;-71
2022/12/31 10:53:39;;;;;;;6.25;1.60;;;;;;;18.78;64.75;100486.94;5077190;28;20093;-71
2022/12/31 10:56:24;;;;;;;5.53;1.90;;;;;;;18.80;64.73;100506.66;5094885;28;20050;-70
2022/12/31 10:59:15;;;;;;;3.03;1.23;;;;;;;18.81;64.63;100526.56;5094552;28;20048;-70
2022/12/31 11:01:52;;;;;;;4.30;1.42;;;;;;;18.83;64.69;100508.19;5093554;28;20063;-72
2022/12/31 11:05:00;;;;;;;2.80;1.20;;;;;;;18.83;64.63;100513.63;5094511;28;20051;-71
2022/12/31 11:08:08;;;;;;;3.80;1.17;;;;;;;18.88;64.23;100509.38;5032207;28;20054;-71
2022/12/31 11:10:54;;;;;;;4.05;1.20;;;;;;;18.92;64.15;100507.16;5094570;28;20050;-71
2022/12/31 11:13:51;;;;;;;3.85;1.30;;;;;;;18.94;64.21;100518.72;5094459;28;20059;-71
2022/12/31 11:16:24;;;;;;;3.38;1.17;;;;;;;18.96;64.16;100514.81;5094514;28;20048;-71
2022/12/31 11:19:02;;;;;;;5.10;1.25;;;;;;;18.97;64.15;100523.81;5093793;28;20114;-71
2022/12/31 11:21:34;;;;;;;2.40;1.08;;;;;;;18.99;63.77;100525.34;5094025;28;20039;-71
2022/12/31 11:24:26;;;;;;;5.38;2.13;;;;;;;19.03;63.60;100518.53;5094323;28;20040;-71
2022/12/31 11:27:21;;;;;;;4.15;1.17;;;;;;;19.05;63.34;100532.84;5094416;28;20048;-71
2022/12/31 11:30:03;;;;;;;3.92;1.35;;;;;;;19.10;63.14;100528.75;5093974;28;20451;-70
2022/12/31 11:32:45;;;;;;;3.40;1.25;;;;;;;19.12;63.05;100526.69;5093920;28;20047;-71
2022/12/31 11:35:21;;;;;;;5.03;1.23;;;;;;;19.13;63.21;100528.41;5094326;28;20051;-70
2022/12/31 11:38:15;;;;;;;3.13;1.10;;;;;;;19.15;63.11;100526.34;5093689;28;20048;-71
2022/12/31 11:40:54;;;;;;;4.57;1.40;;;;;;;19.19;62.81;100542.16;5066145;28;20406;-71
2022/12/31 11:43:40;;;;;;;2.90;1.00;;;;;;;19.22;62.77;100539.09;5093357;28;20043;-70
2022/12/31 11:46:19;;;;;;;6.25;1.58;;;;;;;19.22;62.88;100533.66;5093587;28;20496;-70
2022/12/31 11:49:16;;;;;;;4.57;1.23;;;;;;;19.22;62.34;100539.09;5088036;28;20105;-71
2022/12/31 11:51:55;;;;;;;4.03;1.42;;;;;;;19.23;62.35;100537.22;5093307;28;20039;-71
2022/12/31 11:54:37;;;;;;;4.88;1.48;;;;;;;19.23;62.22;100529.06;5093897;28;20081;-70
2022/12/31 11:57:13;;;;;;;3.92;1.38;;;;;;;19.23;62.03;100532.63;5092417;28;20063;-71
2022/12/31 11:59:39;;;;;;;5.82;1.20;;;;;;;19.23;62.25;100529.91;5093067;28;20044;-71
2022/12/31 12:02:25;;;;;;;3.47;1.52;;;;;;;19.23;62.16;100527.19;5093213;28;20522;-69
2022/12/31 12:04:54;;;;;;;4.18;1.60;;;;;;;19.28;62.01;100537.56;5092233;28;20040;-71